CSZ2364 ZJHK-ZSPD
Flight info
| Callsign | CSZ2364 |
|---|---|
| Flight time | N/A |
| Altitude | 35100 |
| Route | AGTEL9XD AGTEL W71 LH DCT GYA A599 POU G471 XEBUL DCT ODOPI DCT AKAVO DCT UPNUG W76 AREPI B221 SHZ W58 XSY |
| Aircraft | B738/M-SDE2E3FGHIRWXY/LB1 |
Departure
| Time | N/A |
|---|---|
| Airport | Haikou Meilan International Airport (ZJHK) |
Arrival
| Time | 2026-05-06 13:38 |
|---|---|
| Airport | Shanghai Pudong International Airport (ZSPD) |
| Time | Latitude | Longitude | Altitude | Speed | Heading |
|---|---|---|---|---|---|
| 2026-05-06 11:18 | 21.81958 | 111.08435 | 34989 ft | 468 kts | 43° |
| 2026-05-06 11:19 | 21.86516 | 111.13476 | 34995 ft | 468 kts | 43° |
| 2026-05-06 11:19 | 21.91057 | 111.18504 | 35005 ft | 468 kts | 43° |
| 2026-05-06 11:20 | 21.95584 | 111.23522 | 35018 ft | 469 kts | 43° |
| 2026-05-06 11:20 | 22.00136 | 111.28574 | 35026 ft | 469 kts | 43° |
| 2026-05-06 11:21 | 22.04678 | 111.33617 | 35035 ft | 469 kts | 43° |
| 2026-05-06 11:21 | 22.09203 | 111.38650 | 35041 ft | 469 kts | 43° |
| 2026-05-06 11:22 | 22.13776 | 111.43739 | 35043 ft | 469 kts | 43° |
| 2026-05-06 11:22 | 22.18292 | 111.48772 | 35043 ft | 468 kts | 43° |
| 2026-05-06 11:23 | 22.22809 | 111.53808 | 35040 ft | 468 kts | 43° |
| 2026-05-06 11:23 | 22.27351 | 111.58875 | 35031 ft | 468 kts | 43° |
| 2026-05-06 11:24 | 22.31873 | 111.63926 | 35027 ft | 470 kts | 43° |
| 2026-05-06 11:24 | 22.36442 | 111.69036 | 35030 ft | 470 kts | 43° |
| 2026-05-06 11:25 | 22.40977 | 111.74113 | 35043 ft | 469 kts | 43° |
| 2026-05-06 11:25 | 22.45499 | 111.79180 | 35059 ft | 469 kts | 43° |
| 2026-05-06 11:26 | 22.50045 | 111.84279 | 35058 ft | 469 kts | 43° |
| 2026-05-06 11:26 | 22.54564 | 111.89354 | 35045 ft | 469 kts | 43° |
| 2026-05-06 11:27 | 22.59094 | 111.94446 | 35037 ft | 469 kts | 43° |
| 2026-05-06 11:27 | 22.63642 | 111.99561 | 35039 ft | 469 kts | 43° |
| 2026-05-06 11:28 | 22.68147 | 112.04636 | 35044 ft | 469 kts | 43° |
| 2026-05-06 11:28 | 22.72660 | 112.09729 | 35045 ft | 469 kts | 43° |
| 2026-05-06 11:29 | 22.77197 | 112.14848 | 35030 ft | 470 kts | 43° |
| 2026-05-06 11:29 | 22.81731 | 112.19967 | 35014 ft | 471 kts | 43° |
| 2026-05-06 11:30 | 22.86283 | 112.25114 | 35007 ft | 470 kts | 43° |
| 2026-05-06 11:30 | 22.90794 | 112.30221 | 35007 ft | 470 kts | 43° |
| 2026-05-06 11:31 | 22.95306 | 112.35334 | 35008 ft | 471 kts | 43° |
| 2026-05-06 11:31 | 22.99876 | 112.40517 | 35009 ft | 471 kts | 43° |
| 2026-05-06 11:32 | 23.03980 | 112.46085 | 35004 ft | 477 kts | 57° |
| 2026-05-06 11:32 | 23.05353 | 112.49403 | 35007 ft | 482 kts | 69° |
| 2026-05-06 11:32 | 23.06133 | 112.52902 | 35007 ft | 484 kts | 79° |
| 2026-05-06 11:33 | 23.06490 | 112.60223 | 35004 ft | 488 kts | 90° |
| 2026-05-06 11:33 | 23.06030 | 112.67574 | 34997 ft | 488 kts | 94° |
| 2026-05-06 11:34 | 23.05400 | 112.74896 | 34995 ft | 488 kts | 94° |
| 2026-05-06 11:34 | 23.04793 | 112.82266 | 34993 ft | 488 kts | 94° |
| 2026-05-06 11:35 | 23.04238 | 112.89612 | 34993 ft | 489 kts | 94° |
| 2026-05-06 11:35 | 23.03713 | 112.96942 | 34989 ft | 488 kts | 93° |
| 2026-05-06 11:36 | 23.03196 | 113.04297 | 34988 ft | 489 kts | 93° |
| 2026-05-06 11:36 | 23.02680 | 113.11638 | 34988 ft | 487 kts | 93° |
| 2026-05-06 11:37 | 23.02338 | 113.18944 | 34991 ft | 486 kts | 88° |
| 2026-05-06 11:37 | 23.02772 | 113.26231 | 34992 ft | 486 kts | 82° |
| 2026-05-06 11:38 | 23.03577 | 113.33484 | 34993 ft | 485 kts | 80° |
| 2026-05-06 11:38 | 23.04430 | 113.40710 | 35004 ft | 485 kts | 81° |
| 2026-05-06 11:39 | 23.05257 | 113.47998 | 35007 ft | 485 kts | 81° |
| 2026-05-06 11:39 | 23.06049 | 113.55243 | 35009 ft | 485 kts | 81° |
| 2026-05-06 11:40 | 23.06827 | 113.62544 | 35016 ft | 486 kts | 81° |
| 2026-05-06 11:40 | 23.07590 | 113.69813 | 35023 ft | 486 kts | 82° |
| 2026-05-06 11:41 | 23.08392 | 113.77108 | 35021 ft | 486 kts | 79° |
| 2026-05-06 11:41 | 23.10364 | 113.84026 | 35026 ft | 476 kts | 57° |
| 2026-05-06 11:41 | 23.12233 | 113.86946 | 35032 ft | 471 kts | 45° |
| 2026-05-06 11:42 | 23.14532 | 113.89500 | 35035 ft | 466 kts | 38° |
| 2026-05-06 11:42 | 23.19466 | 113.94018 | 35036 ft | 464 kts | 34° |
| 2026-05-06 11:43 | 23.24582 | 113.98354 | 35043 ft | 463 kts | 33° |
| 2026-05-06 11:43 | 23.29633 | 114.02612 | 35044 ft | 463 kts | 34° |
| 2026-05-06 11:44 | 23.37267 | 114.09068 | 35037 ft | 462 kts | 33° |
| 2026-05-06 11:44 | 23.42338 | 114.13377 | 35033 ft | 463 kts | 33° |
| 2026-05-06 11:45 | 23.47428 | 114.17715 | 35037 ft | 463 kts | 34° |
| 2026-05-06 11:45 | 23.52523 | 114.22069 | 35041 ft | 464 kts | 34° |
| 2026-05-06 11:46 | 23.57611 | 114.26426 | 35044 ft | 463 kts | 34° |
| 2026-05-06 11:46 | 23.62680 | 114.30771 | 35037 ft | 464 kts | 34° |
| 2026-05-06 11:47 | 23.67763 | 114.35091 | 35038 ft | 462 kts | 33° |
| 2026-05-06 11:47 | 23.72938 | 114.39341 | 35038 ft | 462 kts | 32° |
| 2026-05-06 11:48 | 23.78087 | 114.43532 | 35042 ft | 462 kts | 32° |
| 2026-05-06 11:48 | 23.83260 | 114.47757 | 35049 ft | 462 kts | 32° |
| 2026-05-06 11:49 | 23.88423 | 114.51990 | 35052 ft | 462 kts | 32° |
| 2026-05-06 11:49 | 23.93540 | 114.56197 | 35054 ft | 462 kts | 32° |
| 2026-05-06 11:50 | 23.98713 | 114.60458 | 35054 ft | 462 kts | 32° |
| 2026-05-06 11:50 | 24.03837 | 114.64685 | 35053 ft | 463 kts | 32° |
| 2026-05-06 11:51 | 24.08977 | 114.68930 | 35047 ft | 464 kts | 33° |
| 2026-05-06 11:51 | 24.14145 | 114.73201 | 35049 ft | 464 kts | 33° |
| 2026-05-06 11:52 | 24.19290 | 114.77459 | 35046 ft | 463 kts | 33° |
| 2026-05-06 11:52 | 24.24435 | 114.81728 | 35047 ft | 463 kts | 33° |
| 2026-05-06 11:53 | 24.29205 | 114.86455 | 35050 ft | 468 kts | 43° |
| 2026-05-06 11:53 | 24.33448 | 114.91952 | 35058 ft | 471 kts | 48° |
| 2026-05-06 11:54 | 24.37422 | 114.97650 | 35062 ft | 472 kts | 49° |
| 2026-05-06 11:54 | 24.41364 | 115.03385 | 35069 ft | 473 kts | 49° |
| 2026-05-06 11:55 | 24.45350 | 115.09154 | 35076 ft | 472 kts | 49° |
| 2026-05-06 11:55 | 24.49317 | 115.14862 | 35083 ft | 474 kts | 49° |
| 2026-05-06 11:56 | 24.53342 | 115.20634 | 35071 ft | 474 kts | 49° |
| 2026-05-06 11:56 | 24.57311 | 115.26331 | 35073 ft | 473 kts | 48° |
| 2026-05-06 11:57 | 24.61325 | 115.32095 | 35072 ft | 473 kts | 49° |
| 2026-05-06 11:57 | 24.65308 | 115.37820 | 35073 ft | 472 kts | 49° |
| 2026-05-06 11:58 | 24.69276 | 115.43581 | 35078 ft | 473 kts | 49° |
| 2026-05-06 11:58 | 24.73091 | 115.49415 | 35075 ft | 474 kts | 51° |
| 2026-05-06 11:59 | 24.76884 | 115.55324 | 35085 ft | 473 kts | 51° |
| 2026-05-06 11:59 | 24.80704 | 115.61254 | 35095 ft | 474 kts | 50° |
| 2026-05-06 12:00 | 24.84522 | 115.67163 | 35101 ft | 473 kts | 51° |
| 2026-05-06 12:00 | 24.88323 | 115.73041 | 35103 ft | 474 kts | 51° |
| 2026-05-06 12:01 | 24.92164 | 115.78982 | 35098 ft | 474 kts | 51° |
| 2026-05-06 12:01 | 24.95987 | 115.84901 | 35100 ft | 475 kts | 51° |
| 2026-05-06 12:02 | 24.99800 | 115.90811 | 35089 ft | 475 kts | 51° |
| 2026-05-06 12:02 | 25.03624 | 115.96746 | 35094 ft | 475 kts | 51° |
| 2026-05-06 12:03 | 25.07450 | 116.02688 | 35108 ft | 476 kts | 51° |
| 2026-05-06 12:03 | 25.11287 | 116.08656 | 35113 ft | 478 kts | 51° |
| 2026-05-06 12:04 | 25.15139 | 116.14658 | 35121 ft | 477 kts | 51° |
| 2026-05-06 12:04 | 25.18944 | 116.20598 | 35126 ft | 477 kts | 51° |
| 2026-05-06 12:05 | 25.22786 | 116.26598 | 35113 ft | 478 kts | 51° |
| 2026-05-06 12:05 | 25.26624 | 116.32598 | 35117 ft | 478 kts | 51° |
| 2026-05-06 12:06 | 25.30447 | 116.38580 | 35118 ft | 478 kts | 51° |
| 2026-05-06 12:06 | 25.34255 | 116.44551 | 35120 ft | 479 kts | 51° |
| 2026-05-06 12:07 | 25.38077 | 116.50549 | 35125 ft | 478 kts | 51° |
| 2026-05-06 12:07 | 25.41920 | 116.56587 | 35119 ft | 477 kts | 50° |
| 2026-05-06 12:08 | 25.45729 | 116.62579 | 35114 ft | 477 kts | 51° |
| 2026-05-06 12:08 | 25.49549 | 116.68594 | 35104 ft | 477 kts | 51° |
| 2026-05-06 12:09 | 25.53352 | 116.74592 | 35093 ft | 478 kts | 51° |
| 2026-05-06 12:09 | 25.57202 | 116.80674 | 35099 ft | 479 kts | 51° |
| 2026-05-06 12:10 | 25.61010 | 116.86697 | 35111 ft | 479 kts | 51° |
| 2026-05-06 12:10 | 25.64869 | 116.92809 | 35118 ft | 479 kts | 51° |
| 2026-05-06 12:11 | 25.68675 | 116.98846 | 35126 ft | 479 kts | 51° |
| 2026-05-06 12:11 | 25.72502 | 117.04915 | 35127 ft | 477 kts | 51° |
| 2026-05-06 12:12 | 25.76299 | 117.10953 | 35137 ft | 477 kts | 51° |
| 2026-05-06 12:12 | 25.80120 | 117.17033 | 35153 ft | 476 kts | 51° |
| 2026-05-06 12:13 | 25.83917 | 117.23087 | 35164 ft | 478 kts | 51° |
| 2026-05-06 12:13 | 25.87697 | 117.29126 | 35165 ft | 477 kts | 51° |
| 2026-05-06 12:14 | 25.91482 | 117.35180 | 35159 ft | 476 kts | 51° |
| 2026-05-06 12:14 | 25.95257 | 117.41211 | 35170 ft | 476 kts | 51° |
| 2026-05-06 12:15 | 25.99039 | 117.47263 | 35183 ft | 476 kts | 51° |
| 2026-05-06 12:15 | 26.02793 | 117.53287 | 35184 ft | 476 kts | 51° |
| 2026-05-06 12:16 | 26.06578 | 117.59367 | 35149 ft | 477 kts | 51° |
| 2026-05-06 12:16 | 26.10372 | 117.65466 | 35128 ft | 476 kts | 51° |
| 2026-05-06 12:17 | 26.14127 | 117.71510 | 35126 ft | 476 kts | 51° |
| 2026-05-06 12:17 | 26.17897 | 117.77589 | 35138 ft | 475 kts | 51° |
| 2026-05-06 12:18 | 26.21645 | 117.83643 | 35140 ft | 474 kts | 51° |
| 2026-05-06 12:18 | 26.25388 | 117.89691 | 35136 ft | 475 kts | 51° |
| 2026-05-06 12:19 | 26.29140 | 117.95771 | 35119 ft | 476 kts | 51° |
| 2026-05-06 12:19 | 26.32861 | 118.01811 | 35109 ft | 475 kts | 51° |
| 2026-05-06 12:20 | 26.36598 | 118.07875 | 35094 ft | 476 kts | 51° |
| 2026-05-06 12:20 | 26.40355 | 118.13983 | 35094 ft | 474 kts | 51° |
| 2026-05-06 12:21 | 26.44064 | 118.20020 | 35085 ft | 476 kts | 51° |
| 2026-05-06 12:21 | 26.47802 | 118.26112 | 35084 ft | 475 kts | 51° |
| 2026-05-06 12:22 | 26.51534 | 118.32203 | 35079 ft | 475 kts | 51° |
| 2026-05-06 12:22 | 26.55249 | 118.38270 | 35090 ft | 474 kts | 51° |
| 2026-05-06 12:23 | 26.58971 | 118.44360 | 35094 ft | 473 kts | 51° |
| 2026-05-06 12:23 | 26.62676 | 118.50434 | 35095 ft | 474 kts | 51° |
| 2026-05-06 12:24 | 26.66395 | 118.56532 | 35108 ft | 475 kts | 51° |
| 2026-05-06 12:24 | 26.70036 | 118.62678 | 35089 ft | 473 kts | 52° |
| 2026-05-06 12:25 | 26.73709 | 118.68782 | 35148 ft | 474 kts | 51° |
| 2026-05-06 12:25 | 26.77483 | 118.74803 | 35134 ft | 470 kts | 51° |
| 2026-05-06 12:26 | 26.79480 | 118.78060 | 35147 ft | 473 kts | 51° |
| 2026-05-06 12:27 | 26.80368 | 118.79517 | 35151 ft | 475 kts | 51° |
| 2026-05-06 12:28 | 26.82953 | 118.83781 | 35149 ft | 474 kts | 51° |
| 2026-05-06 12:28 | 26.85484 | 118.87969 | 35166 ft | 473 kts | 52° |
| 2026-05-06 12:29 | 26.87083 | 118.90623 | 35153 ft | 474 kts | 51° |
| 2026-05-06 12:29 | 26.90761 | 118.96729 | 35169 ft | 473 kts | 51° |
| 2026-05-06 12:30 | 26.94458 | 119.02851 | 35178 ft | 473 kts | 52° |
| 2026-05-06 12:30 | 26.98148 | 119.08974 | 35177 ft | 472 kts | 52° |
| 2026-05-06 12:31 | 27.01805 | 119.15055 | 35176 ft | 473 kts | 52° |
| 2026-05-06 12:31 | 27.05475 | 119.21165 | 35173 ft | 473 kts | 52° |
| 2026-05-06 12:32 | 27.09143 | 119.27277 | 35173 ft | 472 kts | 52° |
| 2026-05-06 12:32 | 27.12831 | 119.33429 | 35167 ft | 471 kts | 52° |
| 2026-05-06 12:33 | 27.16478 | 119.39521 | 35159 ft | 473 kts | 52° |
| 2026-05-06 12:33 | 27.20142 | 119.45655 | 35151 ft | 472 kts | 52° |
| 2026-05-06 12:34 | 27.23792 | 119.51773 | 35142 ft | 472 kts | 52° |
| 2026-05-06 12:34 | 27.27360 | 119.58005 | 35147 ft | 475 kts | 56° |
| 2026-05-06 12:35 | 27.30467 | 119.64568 | 35145 ft | 476 kts | 59° |
| 2026-05-06 12:35 | 27.33419 | 119.71212 | 35151 ft | 477 kts | 60° |
| 2026-05-06 12:36 | 27.36402 | 119.77911 | 35152 ft | 477 kts | 59° |
| 2026-05-06 12:36 | 27.39408 | 119.84568 | 35156 ft | 476 kts | 59° |
| 2026-05-06 12:37 | 27.42420 | 119.91185 | 35154 ft | 477 kts | 59° |
| 2026-05-06 12:37 | 27.45428 | 119.97779 | 35149 ft | 476 kts | 59° |
| 2026-05-06 12:38 | 27.48471 | 120.04451 | 35142 ft | 476 kts | 59° |
| 2026-05-06 12:38 | 27.51493 | 120.11077 | 35137 ft | 474 kts | 59° |
| 2026-05-06 12:39 | 27.54485 | 120.17653 | 35134 ft | 476 kts | 59° |
| 2026-05-06 12:39 | 27.57490 | 120.24276 | 35129 ft | 474 kts | 59° |
| 2026-05-06 12:40 | 27.60481 | 120.30873 | 35124 ft | 475 kts | 59° |
| 2026-05-06 12:40 | 27.64010 | 120.37078 | 35116 ft | 466 kts | 43° |
| 2026-05-06 12:41 | 27.66405 | 120.39485 | 35120 ft | 459 kts | 32° |
| 2026-05-06 12:41 | 27.69022 | 120.41559 | 35115 ft | 457 kts | 28° |
| 2026-05-06 12:41 | 27.74399 | 120.45378 | 35109 ft | 455 kts | 26° |
| 2026-05-06 12:42 | 27.79793 | 120.49107 | 35098 ft | 457 kts | 27° |
| 2026-05-06 12:42 | 27.85154 | 120.52881 | 35093 ft | 456 kts | 27° |
| 2026-05-06 12:43 | 27.90539 | 120.56735 | 35097 ft | 456 kts | 27° |
| 2026-05-06 12:43 | 27.95908 | 120.60606 | 35102 ft | 457 kts | 27° |
| 2026-05-06 12:44 | 28.01355 | 120.64275 | 35102 ft | 453 kts | 21° |
| 2026-05-06 12:44 | 28.04248 | 120.65528 | 35103 ft | 446 kts | 10° |
| 2026-05-06 12:44 | 28.07296 | 120.66201 | 35104 ft | 442 kts | 3° |
| 2026-05-06 12:45 | 28.13387 | 120.66878 | 35104 ft | 439 kts | 360° |
| 2026-05-06 12:46 | 28.22543 | 120.67608 | 35107 ft | 439 kts | 360° |
| 2026-05-06 12:46 | 28.28643 | 120.68153 | 35109 ft | 439 kts | 360° |
| 2026-05-06 12:47 | 28.34737 | 120.68726 | 35114 ft | 439 kts | 360° |
| 2026-05-06 12:47 | 28.40855 | 120.69321 | 35127 ft | 442 kts | 0° |
| 2026-05-06 12:48 | 28.46956 | 120.69946 | 35128 ft | 440 kts | 0° |
| 2026-05-06 12:48 | 28.53078 | 120.70555 | 35133 ft | 440 kts | 0° |
| 2026-05-06 12:49 | 28.59174 | 120.71159 | 35129 ft | 440 kts | 0° |
| 2026-05-06 12:49 | 28.65290 | 120.71769 | 35125 ft | 441 kts | 0° |
| 2026-05-06 12:50 | 28.71432 | 120.72394 | 35121 ft | 442 kts | 0° |
| 2026-05-06 12:50 | 28.77577 | 120.73061 | 35118 ft | 443 kts | 1° |
| 2026-05-06 12:51 | 28.83673 | 120.73741 | 35116 ft | 441 kts | 1° |
| 2026-05-06 12:51 | 28.89818 | 120.74412 | 35106 ft | 441 kts | 0° |
| 2026-05-06 12:52 | 28.95912 | 120.75043 | 35103 ft | 442 kts | 0° |
| 2026-05-06 12:52 | 29.02058 | 120.75675 | 35098 ft | 441 kts | 0° |
| 2026-05-06 12:53 | 29.08157 | 120.76540 | 35038 ft | 451 kts | 11° |
| 2026-05-06 12:53 | 29.11107 | 120.77987 | 34750 ft | 463 kts | 27° |
| 2026-05-06 12:53 | 29.13625 | 120.80347 | 34455 ft | 471 kts | 44° |
| 2026-05-06 12:53 | 29.15479 | 120.83408 | 34164 ft | 478 kts | 61° |
| 2026-05-06 12:54 | 29.16604 | 120.87061 | 33873 ft | 485 kts | 75° |
| 2026-05-06 12:54 | 29.17182 | 120.90845 | 33531 ft | 486 kts | 81° |
| 2026-05-06 12:54 | 29.17552 | 120.94667 | 32868 ft | 486 kts | 83° |
| 2026-05-06 12:54 | 29.17850 | 120.98570 | 31909 ft | 493 kts | 84° |
| 2026-05-06 12:55 | 29.18125 | 121.02473 | 31104 ft | 495 kts | 84° |
| 2026-05-06 12:55 | 29.18396 | 121.06343 | 30757 ft | 486 kts | 84° |
| 2026-05-06 12:55 | 29.18669 | 121.10201 | 30184 ft | 483 kts | 84° |
| 2026-05-06 12:55 | 29.18940 | 121.13979 | 29634 ft | 480 kts | 84° |
| 2026-05-06 12:56 | 29.19219 | 121.17790 | 29032 ft | 478 kts | 84° |
| 2026-05-06 12:56 | 29.19500 | 121.21546 | 28459 ft | 475 kts | 84° |
| 2026-05-06 12:56 | 29.19776 | 121.25277 | 27983 ft | 470 kts | 84° |
| 2026-05-06 12:56 | 29.20051 | 121.29000 | 27437 ft | 466 kts | 84° |
| 2026-05-06 12:57 | 29.20323 | 121.32655 | 26689 ft | 461 kts | 84° |
| 2026-05-06 12:57 | 29.20596 | 121.36285 | 25790 ft | 454 kts | 84° |
| 2026-05-06 12:57 | 29.20865 | 121.39823 | 24935 ft | 448 kts | 84° |
| 2026-05-06 12:57 | 29.21139 | 121.43350 | 24060 ft | 442 kts | 84° |
| 2026-05-06 12:58 | 29.21414 | 121.46800 | 23211 ft | 436 kts | 84° |
| 2026-05-06 12:58 | 29.21695 | 121.50243 | 22445 ft | 428 kts | 84° |
| 2026-05-06 12:58 | 29.21972 | 121.53592 | 21647 ft | 423 kts | 84° |
| 2026-05-06 12:58 | 29.22247 | 121.56921 | 21164 ft | 418 kts | 84° |
| 2026-05-06 12:59 | 29.22518 | 121.60217 | 20642 ft | 415 kts | 83° |
| 2026-05-06 12:59 | 29.22786 | 121.63509 | 20259 ft | 409 kts | 84° |
| 2026-05-06 12:59 | 29.23039 | 121.66693 | 20022 ft | 403 kts | 84° |
| 2026-05-06 12:59 | 29.23408 | 121.69849 | 19791 ft | 401 kts | 76° |
| 2026-05-06 13:00 | 29.24240 | 121.72919 | 19548 ft | 403 kts | 65° |
| 2026-05-06 13:00 | 29.25535 | 121.75732 | 19205 ft | 402 kts | 54° |
| 2026-05-06 13:00 | 29.27261 | 121.78207 | 18852 ft | 395 kts | 41° |
| 2026-05-06 13:00 | 29.29447 | 121.80047 | 18499 ft | 383 kts | 23° |
| 2026-05-06 13:01 | 29.31943 | 121.80950 | 18148 ft | 372 kts | 4° |
| 2026-05-06 13:01 | 29.34484 | 121.81021 | 17823 ft | 365 kts | 352° |
| 2026-05-06 13:01 | 29.36975 | 121.80537 | 17582 ft | 358 kts | 340° |
| 2026-05-06 13:01 | 29.39212 | 121.79357 | 17355 ft | 353 kts | 324° |
| 2026-05-06 13:02 | 29.41198 | 121.77676 | 17123 ft | 352 kts | 319° |
| 2026-05-06 13:02 | 29.43104 | 121.75917 | 16891 ft | 352 kts | 319° |
| 2026-05-06 13:02 | 29.45009 | 121.74178 | 16722 ft | 348 kts | 320° |
| 2026-05-06 13:02 | 29.46912 | 121.72459 | 16697 ft | 338 kts | 320° |
| 2026-05-06 13:03 | 29.48738 | 121.70812 | 16694 ft | 333 kts | 320° |
| 2026-05-06 13:03 | 29.50572 | 121.69151 | 16693 ft | 337 kts | 319° |
| 2026-05-06 13:03 | 29.52420 | 121.67471 | 16691 ft | 340 kts | 319° |
| 2026-05-06 13:03 | 29.54244 | 121.65812 | 16689 ft | 339 kts | 319° |
| 2026-05-06 13:04 | 29.56120 | 121.64105 | 16689 ft | 338 kts | 319° |
| 2026-05-06 13:04 | 29.57969 | 121.62421 | 16694 ft | 338 kts | 319° |
| 2026-05-06 13:04 | 29.59800 | 121.60753 | 16689 ft | 339 kts | 319° |
| 2026-05-06 13:04 | 29.61653 | 121.59064 | 16685 ft | 338 kts | 319° |
| 2026-05-06 13:05 | 29.63504 | 121.57376 | 16681 ft | 339 kts | 319° |
| 2026-05-06 13:05 | 29.65350 | 121.55690 | 16692 ft | 340 kts | 319° |
| 2026-05-06 13:05 | 29.67197 | 121.54004 | 16688 ft | 340 kts | 319° |
| 2026-05-06 13:05 | 29.69064 | 121.52299 | 16676 ft | 339 kts | 319° |
| 2026-05-06 13:06 | 29.70910 | 121.50613 | 16587 ft | 343 kts | 319° |
| 2026-05-06 13:06 | 29.72777 | 121.48904 | 16346 ft | 343 kts | 319° |
| 2026-05-06 13:06 | 29.74647 | 121.47196 | 16106 ft | 338 kts | 319° |
| 2026-05-06 13:06 | 29.76506 | 121.45496 | 15872 ft | 336 kts | 319° |
| 2026-05-06 13:07 | 29.78335 | 121.43819 | 15642 ft | 337 kts | 319° |
| 2026-05-06 13:07 | 29.80158 | 121.42150 | 15412 ft | 336 kts | 320° |
| 2026-05-06 13:07 | 29.81986 | 121.40476 | 15180 ft | 335 kts | 319° |
| 2026-05-06 13:07 | 29.83810 | 121.38807 | 14948 ft | 334 kts | 320° |
| 2026-05-06 13:08 | 29.85703 | 121.37240 | 14804 ft | 334 kts | 326° |
| 2026-05-06 13:08 | 29.87798 | 121.36131 | 14790 ft | 338 kts | 342° |
| 2026-05-06 13:08 | 29.90152 | 121.35738 | 14777 ft | 343 kts | 357° |
| 2026-05-06 13:08 | 29.92532 | 121.35974 | 14778 ft | 346 kts | 7° |
| 2026-05-06 13:09 | 29.94875 | 121.36664 | 14771 ft | 349 kts | 18° |
| 2026-05-06 13:09 | 29.97117 | 121.37824 | 14678 ft | 353 kts | 26° |
| 2026-05-06 13:09 | 29.99258 | 121.39181 | 14448 ft | 353 kts | 28° |
| 2026-05-06 13:09 | 30.01392 | 121.40614 | 14213 ft | 348 kts | 29° |
| 2026-05-06 13:10 | 30.03474 | 121.42007 | 13989 ft | 344 kts | 28° |
| 2026-05-06 13:10 | 30.05581 | 121.43384 | 13764 ft | 344 kts | 28° |
| 2026-05-06 13:10 | 30.07663 | 121.44715 | 13528 ft | 343 kts | 27° |
| 2026-05-06 13:10 | 30.09754 | 121.46035 | 13290 ft | 341 kts | 27° |
| 2026-05-06 13:11 | 30.11864 | 121.47359 | 13056 ft | 340 kts | 27° |
| 2026-05-06 13:11 | 30.13946 | 121.48663 | 12818 ft | 338 kts | 27° |
| 2026-05-06 13:11 | 30.16001 | 121.49953 | 12591 ft | 337 kts | 27° |
| 2026-05-06 13:11 | 30.18077 | 121.51257 | 12350 ft | 336 kts | 27° |
| 2026-05-06 13:12 | 30.20115 | 121.52539 | 12114 ft | 333 kts | 27° |
| 2026-05-06 13:12 | 30.22160 | 121.53825 | 11876 ft | 332 kts | 27° |
| 2026-05-06 13:12 | 30.24196 | 121.55106 | 11643 ft | 331 kts | 27° |
| 2026-05-06 13:12 | 30.26191 | 121.56364 | 11406 ft | 328 kts | 28° |
| 2026-05-06 13:13 | 30.28188 | 121.57647 | 11212 ft | 319 kts | 28° |
| 2026-05-06 13:13 | 30.30067 | 121.58868 | 11090 ft | 307 kts | 28° |
| 2026-05-06 13:13 | 30.31911 | 121.60071 | 10913 ft | 302 kts | 28° |
| 2026-05-06 13:13 | 30.33745 | 121.61264 | 10724 ft | 302 kts | 28° |
| 2026-05-06 13:14 | 30.35580 | 121.62454 | 10530 ft | 301 kts | 28° |
| 2026-05-06 13:14 | 30.37405 | 121.63649 | 10298 ft | 301 kts | 29° |
| 2026-05-06 13:14 | 30.39206 | 121.64889 | 10058 ft | 299 kts | 30° |
| 2026-05-06 13:14 | 30.40978 | 121.66148 | 9817 ft | 298 kts | 31° |
| 2026-05-06 13:15 | 30.42738 | 121.67403 | 9575 ft | 295 kts | 30° |
| 2026-05-06 13:15 | 30.44479 | 121.68635 | 9337 ft | 295 kts | 31° |
| 2026-05-06 13:15 | 30.46223 | 121.69863 | 9098 ft | 294 kts | 30° |
| 2026-05-06 13:15 | 30.47992 | 121.71107 | 8853 ft | 292 kts | 31° |
| 2026-05-06 13:16 | 30.49732 | 121.72330 | 8611 ft | 292 kts | 31° |
| 2026-05-06 13:16 | 30.51471 | 121.73554 | 8367 ft | 291 kts | 31° |
| 2026-05-06 13:16 | 30.53198 | 121.74770 | 8121 ft | 289 kts | 31° |
| 2026-05-06 13:16 | 30.54914 | 121.75979 | 7878 ft | 288 kts | 31° |
| 2026-05-06 13:17 | 30.56644 | 121.77161 | 7635 ft | 288 kts | 27° |
| 2026-05-06 13:17 | 30.58497 | 121.78038 | 7391 ft | 286 kts | 16° |
| 2026-05-06 13:17 | 30.60424 | 121.78586 | 7149 ft | 286 kts | 12° |
| 2026-05-06 13:17 | 30.62385 | 121.79042 | 6902 ft | 285 kts | 11° |
| 2026-05-06 13:18 | 30.64330 | 121.79505 | 6692 ft | 283 kts | 12° |
| 2026-05-06 13:18 | 30.66256 | 121.79997 | 6498 ft | 283 kts | 13° |
| 2026-05-06 13:18 | 30.68169 | 121.80507 | 6302 ft | 284 kts | 13° |
| 2026-05-06 13:18 | 30.70094 | 121.81031 | 6106 ft | 283 kts | 13° |
| 2026-05-06 13:19 | 30.72010 | 121.81554 | 5928 ft | 281 kts | 13° |
| 2026-05-06 13:19 | 30.73922 | 121.82077 | 5889 ft | 279 kts | 13° |
| 2026-05-06 13:19 | 30.75828 | 121.82597 | 5882 ft | 283 kts | 13° |
| 2026-05-06 13:19 | 30.77737 | 121.83117 | 5879 ft | 282 kts | 13° |
| 2026-05-06 13:20 | 30.79657 | 121.83640 | 5881 ft | 281 kts | 13° |
| 2026-05-06 13:20 | 30.81577 | 121.84164 | 5883 ft | 282 kts | 13° |
| 2026-05-06 13:20 | 30.83485 | 121.84684 | 5882 ft | 283 kts | 13° |
| 2026-05-06 13:20 | 30.85394 | 121.85205 | 5885 ft | 283 kts | 13° |
| 2026-05-06 13:21 | 30.87321 | 121.85731 | 5883 ft | 282 kts | 13° |
| 2026-05-06 13:21 | 30.89248 | 121.86257 | 5885 ft | 282 kts | 13° |
| 2026-05-06 13:21 | 30.91169 | 121.86781 | 5886 ft | 281 kts | 13° |
| 2026-05-06 13:21 | 30.93071 | 121.87376 | 5880 ft | 282 kts | 20° |
| 2026-05-06 13:22 | 30.94840 | 121.88315 | 5886 ft | 280 kts | 29° |
| 2026-05-06 13:22 | 30.96541 | 121.89484 | 5886 ft | 278 kts | 32° |
| 2026-05-06 13:22 | 30.98136 | 121.90644 | 5884 ft | 268 kts | 32° |
| 2026-05-06 13:22 | 30.99698 | 121.91765 | 5885 ft | 255 kts | 32° |
| 2026-05-06 13:23 | 31.01207 | 121.92821 | 5885 ft | 251 kts | 31° |
| 2026-05-06 13:23 | 31.02730 | 121.93870 | 5893 ft | 257 kts | 31° |
| 2026-05-06 13:23 | 31.04286 | 121.94936 | 5887 ft | 260 kts | 31° |
| 2026-05-06 13:23 | 31.05843 | 121.96001 | 5884 ft | 259 kts | 31° |
| 2026-05-06 13:24 | 31.07457 | 121.96953 | 5880 ft | 259 kts | 20° |
| 2026-05-06 13:24 | 31.09235 | 121.97227 | 5884 ft | 259 kts | 351° |
| 2026-05-06 13:24 | 31.10959 | 121.96677 | 5898 ft | 259 kts | 339° |
| 2026-05-06 13:24 | 31.12661 | 121.95918 | 5886 ft | 258 kts | 338° |
| 2026-05-06 13:25 | 31.14362 | 121.95190 | 5889 ft | 259 kts | 340° |
| 2026-05-06 13:25 | 31.16075 | 121.94516 | 5888 ft | 259 kts | 341° |
| 2026-05-06 13:25 | 31.17768 | 121.93879 | 5883 ft | 254 kts | 341° |
| 2026-05-06 13:25 | 31.19426 | 121.93260 | 5897 ft | 241 kts | 342° |
| 2026-05-06 13:26 | 31.20975 | 121.92680 | 5840 ft | 234 kts | 341° |
| 2026-05-06 13:26 | 31.22548 | 121.92089 | 5604 ft | 237 kts | 341° |
| 2026-05-06 13:26 | 31.24134 | 121.91492 | 5355 ft | 235 kts | 341° |
| 2026-05-06 13:26 | 31.25683 | 121.90907 | 5111 ft | 235 kts | 341° |
| 2026-05-06 13:27 | 31.27228 | 121.90325 | 4861 ft | 232 kts | 341° |
| 2026-05-06 13:27 | 31.28755 | 121.89750 | 4614 ft | 228 kts | 341° |
| 2026-05-06 13:27 | 31.30271 | 121.89178 | 4366 ft | 225 kts | 341° |
| 2026-05-06 13:27 | 31.31744 | 121.88622 | 4123 ft | 225 kts | 341° |
| 2026-05-06 13:28 | 31.33242 | 121.88058 | 3917 ft | 222 kts | 341° |
| 2026-05-06 13:28 | 31.34709 | 121.87505 | 3896 ft | 217 kts | 341° |
| 2026-05-06 13:28 | 31.36125 | 121.86970 | 3887 ft | 214 kts | 341° |
| 2026-05-06 13:28 | 31.37517 | 121.86445 | 3828 ft | 207 kts | 341° |
| 2026-05-06 13:29 | 31.38888 | 121.85926 | 3607 ft | 204 kts | 341° |
| 2026-05-06 13:29 | 31.40238 | 121.85416 | 3381 ft | 201 kts | 341° |
| 2026-05-06 13:29 | 31.41578 | 121.84909 | 3158 ft | 203 kts | 341° |
| 2026-05-06 13:29 | 31.42903 | 121.84335 | 2933 ft | 202 kts | 331° |
| 2026-05-06 13:30 | 31.43939 | 121.83292 | 2710 ft | 199 kts | 298° |
| 2026-05-06 13:30 | 31.44395 | 121.81799 | 2509 ft | 194 kts | 275° |
| 2026-05-06 13:30 | 31.44421 | 121.80241 | 2311 ft | 190 kts | 257° |
| 2026-05-06 13:30 | 31.44130 | 121.78728 | 2111 ft | 189 kts | 251° |
| 2026-05-06 13:31 | 31.43815 | 121.77262 | 1988 ft | 186 kts | 252° |
| 2026-05-06 13:31 | 31.43524 | 121.75768 | 1981 ft | 187 kts | 253° |
| 2026-05-06 13:31 | 31.43223 | 121.74295 | 1977 ft | 188 kts | 248° |
| 2026-05-06 13:31 | 31.42570 | 121.73016 | 1973 ft | 179 kts | 215° |
| 2026-05-06 13:32 | 31.41451 | 121.72534 | 1986 ft | 174 kts | 178° |
| 2026-05-06 13:32 | 31.40257 | 121.72718 | 1983 ft | 172 kts | 168° |
| 2026-05-06 13:32 | 31.39087 | 121.73024 | 1982 ft | 171 kts | 165° |
| 2026-05-06 13:32 | 31.37929 | 121.73402 | 1983 ft | 172 kts | 163° |
| 2026-05-06 13:33 | 31.36774 | 121.73821 | 1983 ft | 171 kts | 162° |
| 2026-05-06 13:33 | 31.35632 | 121.74246 | 1985 ft | 171 kts | 162° |
| 2026-05-06 13:33 | 31.34490 | 121.74671 | 1985 ft | 172 kts | 162° |
| 2026-05-06 13:33 | 31.33358 | 121.75097 | 1983 ft | 170 kts | 162° |
| 2026-05-06 13:34 | 31.32219 | 121.75527 | 1983 ft | 170 kts | 162° |
| 2026-05-06 13:34 | 31.31087 | 121.75954 | 1985 ft | 171 kts | 162° |
| 2026-05-06 13:34 | 31.29965 | 121.76378 | 1979 ft | 165 kts | 162° |
| 2026-05-06 13:34 | 31.28869 | 121.76791 | 1988 ft | 170 kts | 162° |
| 2026-05-06 13:35 | 31.27740 | 121.77215 | 1987 ft | 170 kts | 162° |
| 2026-05-06 13:35 | 31.26604 | 121.77643 | 1989 ft | 167 kts | 162° |
| 2026-05-06 13:35 | 31.25545 | 121.78041 | 1963 ft | 153 kts | 162° |
| 2026-05-06 13:35 | 31.24582 | 121.78403 | 1802 ft | 142 kts | 162° |
| 2026-05-06 13:36 | 31.23668 | 121.78748 | 1570 ft | 133 kts | 162° |
| 2026-05-06 13:36 | 31.22797 | 121.79074 | 1431 ft | 132 kts | 162° |
| 2026-05-06 13:36 | 31.21898 | 121.79413 | 1259 ft | 139 kts | 162° |
| 2026-05-06 13:36 | 31.20971 | 121.79761 | 1057 ft | 137 kts | 161° |
| 2026-05-06 13:37 | 31.20062 | 121.80101 | 875 ft | 138 kts | 161° |
| 2026-05-06 13:37 | 31.19133 | 121.80448 | 691 ft | 139 kts | 161° |
| 2026-05-06 13:37 | 31.18214 | 121.80789 | 496 ft | 140 kts | 161° |
| 2026-05-06 13:37 | 31.17290 | 121.81136 | 324 ft | 140 kts | 160° |
| 2026-05-06 13:38 | 31.16352 | 121.81487 | 137 ft | 141 kts | 161° |
| 2026-05-06 13:38 | 31.15437 | 121.81831 | 23 ft | 129 kts | 160° |
| 2026-05-06 13:38 | 31.14772 | 121.82088 | 22 ft | 65 kts | 162° |
| 2026-05-06 13:38 | 31.14489 | 121.82183 | 22 ft | 32 kts | 175° |
| 2026-05-06 13:39 | 31.14334 | 121.82172 | 22 ft | 11 kts | 188° |
| 2026-05-06 13:39 | 31.14275 | 121.82161 | 22 ft | 7 kts | 190° |
| 2026-05-06 13:39 | 31.14216 | 121.82149 | 22 ft | 9 kts | 190° |
| 2026-05-06 13:39 | 31.14142 | 121.82136 | 22 ft | 10 kts | 185° |
| 2026-05-06 13:40 | 31.14071 | 121.82143 | 22 ft | 10 kts | 162° |
| 2026-05-06 13:40 | 31.14006 | 121.82168 | 22 ft | 9 kts | 162° |
| 2026-05-06 13:40 | 31.13934 | 121.82196 | 22 ft | 12 kts | 163° |
| 2026-05-06 13:40 | 31.13848 | 121.82227 | 22 ft | 9 kts | 162° |
| 2026-05-06 13:41 | 31.13795 | 121.82247 | 22 ft | 6 kts | 162° |
| 2026-05-06 13:41 | 31.13752 | 121.82264 | 22 ft | 6 kts | 162° |
| 2026-05-06 13:41 | 31.13712 | 121.82279 | 22 ft | 0 kts | 162° |
| 2026-05-06 13:41 | 31.13695 | 121.82282 | 22 ft | 4 kts | 188° |
| 2026-05-06 13:42 | 31.13661 | 121.82245 | 22 ft | 9 kts | 245° |
| 2026-05-06 13:42 | 31.13643 | 121.82183 | 22 ft | 5 kts | 252° |
| 2026-05-06 13:42 | 31.13630 | 121.82134 | 22 ft | 8 kts | 252° |
| 2026-05-06 13:42 | 31.13608 | 121.82055 | 22 ft | 12 kts | 252° |
| 2026-05-06 13:43 | 31.13581 | 121.81960 | 22 ft | 8 kts | 252° |
| 2026-05-06 13:43 | 31.13557 | 121.81876 | 22 ft | 10 kts | 251° |
| 2026-05-06 13:43 | 31.13539 | 121.81812 | 22 ft | 8 kts | 252° |
| 2026-05-06 13:43 | 31.13502 | 121.81759 | 22 ft | 10 kts | 188° |
| 2026-05-06 13:44 | 31.13428 | 121.81780 | 22 ft | 8 kts | 161° |
| 2026-05-06 13:44 | 31.13365 | 121.81804 | 22 ft | 8 kts | 170° |
| 2026-05-06 13:44 | 31.13312 | 121.81764 | 22 ft | 11 kts | 247° |
| 2026-05-06 13:44 | 31.13281 | 121.81659 | 22 ft | 15 kts | 252° |
| 2026-05-06 13:45 | 31.13244 | 121.81527 | 22 ft | 13 kts | 252° |
| 2026-05-06 13:45 | 31.13206 | 121.81387 | 22 ft | 10 kts | 252° |
| 2026-05-06 13:45 | 31.13179 | 121.81293 | 22 ft | 13 kts | 252° |
| 2026-05-06 13:46 | 31.13161 | 121.81229 | 22 ft | 5 kts | 252° |
| 2026-05-06 13:46 | 31.13173 | 121.81183 | 22 ft | 7 kts | 318° |
| 2026-05-06 13:46 | 31.13210 | 121.81162 | 22 ft | 4 kts | 340° |
| 2026-05-06 13:46 | 31.13246 | 121.81162 | 22 ft | 6 kts | 30° |
| 2026-05-06 13:47 | 31.13281 | 121.81210 | 22 ft | 7 kts | 57° |
| 2026-05-06 13:47 | 31.13304 | 121.81252 | 22 ft | 5 kts | 58° |
| 2026-05-06 13:47 | 31.13319 | 121.81280 | 22 ft | 3 kts | 57° |
| 2026-05-06 13:47 | 31.13331 | 121.81301 | 22 ft | 0 kts | 57° |
| 2026-05-06 13:48 | 31.13334 | 121.81308 | 22 ft | 0 kts | 57° |
| 2026-05-06 13:48 | 31.13335 | 121.81310 | 22 ft | 0 kts | 57° |